sensor_id;sensor_type;location;lat;lon;timestamp;P1;durP1;ratioP1;P2;durP2;ratioP2
53497;SDS011;39382;47.168;16.008;2024-03-23T00:52:47;5.25;;;2.95;;
53497;SDS011;39382;47.168;16.008;2024-03-23T00:55:13;4.43;;;3.08;;
53497;SDS011;39382;47.168;16.008;2024-03-23T00:57:39;5.18;;;3.90;;
53497;SDS011;39382;47.168;16.008;2024-03-23T01:00:05;6.20;;;3.90;;
53497;SDS011;39382;47.168;16.008;2024-03-23T01:02:31;5.18;;;3.42;;
53497;SDS011;39382;47.168;16.008;2024-03-23T01:04:57;4.50;;;3.47;;
53497;SDS011;39382;47.168;16.008;2024-03-23T01:07:23;6.63;;;3.22;;
53497;SDS011;39382;47.168;16.008;2024-03-23T01:09:49;6.35;;;3.00;;
53497;SDS011;39382;47.168;16.008;2024-03-23T01:12:14;6.32;;;3.15;;
53497;SDS011;39382;47.168;16.008;2024-03-23T01:14:40;5.75;;;2.85;;
53497;SDS011;39382;47.168;16.008;2024-03-23T01:17:05;5.80;;;3.55;;
53497;SDS011;39382;47.168;16.008;2024-03-23T01:19:31;9.02;;;3.00;;
53497;SDS011;39382;47.168;16.008;2024-03-23T01:21:57;4.93;;;3.03;;
53497;SDS011;39382;47.168;16.008;2024-03-23T01:24:22;4.25;;;2.63;;
53497;SDS011;39382;47.168;16.008;2024-03-23T01:26:48;6.82;;;2.90;;
53497;SDS011;39382;47.168;16.008;2024-03-23T01:29:14;10.13;;;3.40;;
53497;SDS011;39382;47.168;16.008;2024-03-23T01:31:39;8.45;;;2.63;;
53497;SDS011;39382;47.168;16.008;2024-03-23T01:34:05;3.55;;;2.97;;
53497;SDS011;39382;47.168;16.008;2024-03-23T01:36:31;4.47;;;2.50;;
53497;SDS011;39382;47.168;16.008;2024-03-23T01:38:56;7.32;;;3.45;;
53497;SDS011;39382;47.168;16.008;2024-03-23T01:41:23;3.30;;;2.95;;
53497;SDS011;39382;47.168;16.008;2024-03-23T01:43:49;4.45;;;2.90;;
53497;SDS011;39382;47.168;16.008;2024-03-23T01:46:15;8.85;;;3.20;;
53497;SDS011;39382;47.168;16.008;2024-03-23T01:48:42;3.20;;;2.83;;
53497;SDS011;39382;47.168;16.008;2024-03-23T01:51:07;4.97;;;2.67;;
53497;SDS011;39382;47.168;16.008;2024-03-23T01:53:34;4.18;;;2.40;;
53497;SDS011;39382;47.168;16.008;2024-03-23T01:55:59;5.78;;;3.13;;
53497;SDS011;39382;47.168;16.008;2024-03-23T01:58:27;5.28;;;2.92;;
53497;SDS011;39382;47.168;16.008;2024-03-23T02:00:53;3.00;;;2.40;;
53497;SDS011;39382;47.168;16.008;2024-03-23T02:03:22;3.42;;;2.30;;
53497;SDS011;39382;47.168;16.008;2024-03-23T02:05:51;4.43;;;2.20;;
53497;SDS011;39382;47.168;16.008;2024-03-23T02:08:20;3.85;;;2.17;;
53497;SDS011;39382;47.168;16.008;2024-03-23T02:10:47;4.80;;;2.65;;
53497;SDS011;39382;47.168;16.008;2024-03-23T02:13:15;2.13;;;1.92;;
53497;SDS011;39382;47.168;16.008;2024-03-23T02:15:42;6.95;;;2.25;;
53497;SDS011;39382;47.168;16.008;2024-03-23T02:18:09;3.63;;;2.00;;
53497;SDS011;39382;47.168;16.008;2024-03-23T02:20:36;10.32;;;2.90;;
53497;SDS011;39382;47.168;16.008;2024-03-23T02:23:02;5.32;;;3.53;;
53497;SDS011;39382;47.168;16.008;2024-03-23T02:25:30;5.38;;;4.13;;
53497;SDS011;39382;47.168;16.008;2024-03-23T02:27:57;5.10;;;3.42;;
53497;SDS011;39382;47.168;16.008;2024-03-23T02:30:24;7.10;;;2.88;;
53497;SDS011;39382;47.168;16.008;2024-03-23T02:32:50;5.50;;;3.70;;
53497;SDS011;39382;47.168;16.008;2024-03-23T02:35:15;4.95;;;3.67;;
53497;SDS011;39382;47.168;16.008;2024-03-23T02:37:41;7.03;;;3.13;;
53497;SDS011;39382;47.168;16.008;2024-03-23T02:40:07;10.15;;;3.03;;
53497;SDS011;39382;47.168;16.008;2024-03-23T02:42:33;7.88;;;3.15;;
53497;SDS011;39382;47.168;16.008;2024-03-23T02:44:59;6.97;;;3.22;;
53497;SDS011;39382;47.168;16.008;2024-03-23T02:47:25;4.28;;;3.08;;
53497;SDS011;39382;47.168;16.008;2024-03-23T02:49:50;6.35;;;3.65;;
53497;SDS011;39382;47.168;16.008;2024-03-23T02:52:16;6.00;;;2.80;;
53497;SDS011;39382;47.168;16.008;2024-03-23T02:54:42;5.35;;;3.33;;
53497;SDS011;39382;47.168;16.008;2024-03-23T02:57:09;6.78;;;3.88;;
53497;SDS011;39382;47.168;16.008;2024-03-23T02:59:35;5.70;;;3.58;;
53497;SDS011;39382;47.168;16.008;2024-03-23T03:02:01;4.22;;;3.13;;
53497;SDS011;39382;47.168;16.008;2024-03-23T03:04:29;4.68;;;2.72;;
53497;SDS011;39382;47.168;16.008;2024-03-23T03:06:55;4.10;;;2.53;;
53497;SDS011;39382;47.168;16.008;2024-03-23T03:09:20;6.68;;;3.83;;
53497;SDS011;39382;47.168;16.008;2024-03-23T03:11:46;7.72;;;3.85;;
53497;SDS011;39382;47.168;16.008;2024-03-23T03:14:12;6.97;;;3.92;;
53497;SDS011;39382;47.168;16.008;2024-03-23T03:16:37;5.10;;;3.50;;
53497;SDS011;39382;47.168;16.008;2024-03-23T03:19:03;9.85;;;3.63;;
53497;SDS011;39382;47.168;16.008;2024-03-23T03:21:29;7.32;;;3.88;;
53497;SDS011;39382;47.168;16.008;2024-03-23T03:23:54;6.90;;;3.42;;
53497;SDS011;39382;47.168;16.008;2024-03-23T03:26:22;8.00;;;3.95;;
53497;SDS011;39382;47.168;16.008;2024-03-23T03:28:48;8.20;;;4.07;;
53497;SDS011;39382;47.168;16.008;2024-03-23T03:31:17;6.00;;;3.33;;
53497;SDS011;39382;47.168;16.008;2024-03-23T03:33:43;5.57;;;3.67;;
53497;SDS011;39382;47.168;16.008;2024-03-23T03:36:09;10.75;;;3.88;;
53497;SDS011;39382;47.168;16.008;2024-03-23T03:38:35;6.13;;;3.25;;
53497;SDS011;39382;47.168;16.008;2024-03-23T03:41:02;4.90;;;3.55;;
53497;SDS011;39382;47.168;16.008;2024-03-23T03:43:27;4.43;;;2.97;;
53497;SDS011;39382;47.168;16.008;2024-03-23T03:45:57;7.57;;;2.90;;
53497;SDS011;39382;47.168;16.008;2024-03-23T03:48:24;4.45;;;2.63;;
53497;SDS011;39382;47.168;16.008;2024-03-23T03:50:49;4.55;;;2.42;;
53497;SDS011;39382;47.168;16.008;2024-03-23T03:53:15;5.18;;;3.10;;
53497;SDS011;39382;47.168;16.008;2024-03-23T03:55:41;3.60;;;2.33;;
53497;SDS011;39382;47.168;16.008;2024-03-23T03:58:07;2.83;;;2.22;;
53497;SDS011;39382;47.168;16.008;2024-03-23T04:00:32;2.63;;;2.15;;
53497;SDS011;39382;47.168;16.008;2024-03-23T04:02:58;2.85;;;2.30;;
53497;SDS011;39382;47.168;16.008;2024-03-23T04:05:24;3.08;;;2.00;;
53497;SDS011;39382;47.168;16.008;2024-03-23T04:07:49;5.45;;;3.00;;
53497;SDS011;39382;47.168;16.008;2024-03-23T04:10:15;2.20;;;1.77;;
53497;SDS011;39382;47.168;16.008;2024-03-23T04:12:43;5.63;;;2.08;;
53497;SDS011;39382;47.168;16.008;2024-03-23T04:15:09;2.45;;;2.25;;
53497;SDS011;39382;47.168;16.008;2024-03-23T04:17:35;3.92;;;2.17;;
53497;SDS011;39382;47.168;16.008;2024-03-23T04:20:01;3.47;;;2.08;;
53497;SDS011;39382;47.168;16.008;2024-03-23T04:22:28;3.45;;;2.00;;
53497;SDS011;39382;47.168;16.008;2024-03-23T04:24:54;3.95;;;2.10;;
53497;SDS011;39382;47.168;16.008;2024-03-23T04:27:21;4.65;;;2.70;;
53497;SDS011;39382;47.168;16.008;2024-03-23T04:29:50;2.63;;;2.42;;
53497;SDS011;39382;47.168;16.008;2024-03-23T04:32:16;4.07;;;2.33;;
53497;SDS011;39382;47.168;16.008;2024-03-23T04:34:43;4.38;;;2.95;;
53497;SDS011;39382;47.168;16.008;2024-03-23T04:37:09;3.67;;;2.70;;
53497;SDS011;39382;47.168;16.008;2024-03-23T04:39:38;7.43;;;3.15;;
53497;SDS011;39382;47.168;16.008;2024-03-23T04:42:04;3.33;;;2.45;;
53497;SDS011;39382;47.168;16.008;2024-03-23T04:44:30;3.03;;;2.70;;
53497;SDS011;39382;47.168;16.008;2024-03-23T04:46:56;10.80;;;2.90;;
53497;SDS011;39382;47.168;16.008;2024-03-23T04:49:22;6.28;;;2.83;;
53497;SDS011;39382;47.168;16.008;2024-03-23T04:51:48;7.65;;;3.47;;
53497;SDS011;39382;47.168;16.008;2024-03-23T04:54:13;4.05;;;2.28;;
53497;SDS011;39382;47.168;16.008;2024-03-23T04:56:40;4.53;;;2.83;;
53497;SDS011;39382;47.168;16.008;2024-03-23T04:59:06;6.25;;;3.28;;
53497;SDS011;39382;47.168;16.008;2024-03-23T05:01:31;4.40;;;3.30;;
53497;SDS011;39382;47.168;16.008;2024-03-23T05:03:58;4.50;;;3.00;;
53497;SDS011;39382;47.168;16.008;2024-03-23T05:06:24;5.35;;;3.55;;
53497;SDS011;39382;47.168;16.008;2024-03-23T05:08:50;8.55;;;3.55;;
53497;SDS011;39382;47.168;16.008;2024-03-23T05:11:16;6.80;;;2.97;;
53497;SDS011;39382;47.168;16.008;2024-03-23T05:13:42;3.22;;;2.55;;
53497;SDS011;39382;47.168;16.008;2024-03-23T05:16:07;3.70;;;2.75;;
53497;SDS011;39382;47.168;16.008;2024-03-23T05:18:33;4.72;;;3.22;;
53497;SDS011;39382;47.168;16.008;2024-03-23T05:21:00;4.60;;;3.20;;
53497;SDS011;39382;47.168;16.008;2024-03-23T05:23:26;5.20;;;3.05;;
53497;SDS011;39382;47.168;16.008;2024-03-23T05:25:53;6.93;;;2.50;;
53497;SDS011;39382;47.168;16.008;2024-03-23T05:28:18;5.78;;;3.08;;
53497;SDS011;39382;47.168;16.008;2024-03-23T05:30:49;5.93;;;2.97;;
53497;SDS011;39382;47.168;16.008;2024-03-23T05:33:19;5.65;;;2.40;;
53497;SDS011;39382;47.168;16.008;2024-03-23T05:35:45;4.68;;;3.03;;
53497;SDS011;39382;47.168;16.008;2024-03-23T05:38:11;6.78;;;3.80;;
53497;SDS011;39382;47.168;16.008;2024-03-23T05:40:37;7.35;;;4.28;;
53497;SDS011;39382;47.168;16.008;2024-03-23T05:43:05;7.65;;;4.07;;
53497;SDS011;39382;47.168;16.008;2024-03-23T05:45:31;5.15;;;3.80;;
53497;SDS011;39382;47.168;16.008;2024-03-23T05:47:57;5.88;;;3.75;;
53497;SDS011;39382;47.168;16.008;2024-03-23T05:50:23;6.53;;;3.92;;
53497;SDS011;39382;47.168;16.008;2024-03-23T05:52:49;5.18;;;3.03;;
53497;SDS011;39382;47.168;16.008;2024-03-23T05:55:15;4.70;;;3.75;;
53497;SDS011;39382;47.168;16.008;2024-03-23T05:57:41;7.35;;;4.00;;
53497;SDS011;39382;47.168;16.008;2024-03-23T06:00:07;5.28;;;3.83;;
53497;SDS011;39382;47.168;16.008;2024-03-23T06:02:40;9.70;;;3.33;;
53497;SDS011;39382;47.168;16.008;2024-03-23T06:05:12;5.88;;;4.00;;
53497;SDS011;39382;47.168;16.008;2024-03-23T06:07:38;12.00;;;4.55;;
53497;SDS011;39382;47.168;16.008;2024-03-23T06:10:04;8.85;;;5.18;;
53497;SDS011;39382;47.168;16.008;2024-03-23T06:12:30;5.82;;;5.03;;
53497;SDS011;39382;47.168;16.008;2024-03-23T06:14:56;5.80;;;4.05;;
53497;SDS011;39382;47.168;16.008;2024-03-23T06:17:22;13.65;;;5.28;;
53497;SDS011;39382;47.168;16.008;2024-03-23T06:19:48;7.60;;;3.95;;
53497;SDS011;39382;47.168;16.008;2024-03-23T06:22:14;5.72;;;3.33;;
53497;SDS011;39382;47.168;16.008;2024-03-23T06:24:40;4.97;;;3.55;;
53497;SDS011;39382;47.168;16.008;2024-03-23T06:27:06;5.03;;;3.40;;
53497;SDS011;39382;47.168;16.008;2024-03-23T06:29:31;8.15;;;3.10;;
53497;SDS011;39382;47.168;16.008;2024-03-23T06:31:57;6.80;;;3.25;;
53497;SDS011;39382;47.168;16.008;2024-03-23T06:34:23;5.47;;;3.40;;
53497;SDS011;39382;47.168;16.008;2024-03-23T06:36:49;6.15;;;3.72;;
53497;SDS011;39382;47.168;16.008;2024-03-23T06:39:18;3.60;;;3.15;;
53497;SDS011;39382;47.168;16.008;2024-03-23T06:41:51;5.55;;;3.15;;
53497;SDS011;39382;47.168;16.008;2024-03-23T06:44:17;6.88;;;3.35;;
53497;SDS011;39382;47.168;16.008;2024-03-23T06:46:44;6.03;;;3.45;;
53497;SDS011;39382;47.168;16.008;2024-03-23T06:49:10;4.78;;;3.10;;
53497;SDS011;39382;47.168;16.008;2024-03-23T06:51:36;9.30;;;4.13;;
53497;SDS011;39382;47.168;16.008;2024-03-23T06:54:02;7.85;;;3.78;;
53497;SDS011;39382;47.168;16.008;2024-03-23T06:56:29;7.80;;;3.70;;
53497;SDS011;39382;47.168;16.008;2024-03-23T06:58:55;5.30;;;3.70;;
53497;SDS011;39382;47.168;16.008;2024-03-23T07:01:21;7.13;;;3.33;;
53497;SDS011;39382;47.168;16.008;2024-03-23T07:03:46;4.90;;;3.50;;
53497;SDS011;39382;47.168;16.008;2024-03-23T07:06:12;4.15;;;3.58;;
53497;SDS011;39382;47.168;16.008;2024-03-23T07:08:38;6.00;;;3.85;;
53497;SDS011;39382;47.168;16.008;2024-03-23T07:11:03;5.40;;;3.65;;
53497;SDS011;39382;47.168;16.008;2024-03-23T07:13:29;5.95;;;3.60;;
53497;SDS011;39382;47.168;16.008;2024-03-23T07:15:55;3.40;;;2.53;;
53497;SDS011;39382;47.168;16.008;2024-03-23T07:18:22;4.90;;;3.05;;
53497;SDS011;39382;47.168;16.008;2024-03-23T07:20:54;4.80;;;3.25;;
53497;SDS011;39382;47.168;16.008;2024-03-23T07:23:21;2.83;;;2.45;;
53497;SDS011;39382;47.168;16.008;2024-03-23T07:26:00;7.38;;;3.58;;
53497;SDS011;39382;47.168;16.008;2024-03-23T07:28:27;5.38;;;3.60;;
53497;SDS011;39382;47.168;16.008;2024-03-23T07:31:09;3.90;;;3.10;;
53497;SDS011;39382;47.168;16.008;2024-03-23T07:33:45;5.25;;;2.60;;
53497;SDS011;39382;47.168;16.008;2024-03-23T07:36:12;6.15;;;3.58;;
53497;SDS011;39382;47.168;16.008;2024-03-23T07:38:41;8.18;;;3.30;;
53497;SDS011;39382;47.168;16.008;2024-03-23T07:41:10;7.35;;;2.85;;
53497;SDS011;39382;47.168;16.008;2024-03-23T07:43:37;3.05;;;2.75;;
53497;SDS011;39382;47.168;16.008;2024-03-23T07:46:04;3.78;;;3.10;;
53497;SDS011;39382;47.168;16.008;2024-03-23T07:48:30;7.28;;;2.88;;
53497;SDS011;39382;47.168;16.008;2024-03-23T07:50:57;5.47;;;2.92;;
53497;SDS011;39382;47.168;16.008;2024-03-23T07:53:27;5.32;;;3.80;;
53497;SDS011;39382;47.168;16.008;2024-03-23T07:55:57;7.38;;;5.28;;
53497;SDS011;39382;47.168;16.008;2024-03-23T07:58:24;6.25;;;5.65;;
53497;SDS011;39382;47.168;16.008;2024-03-23T08:00:51;8.60;;;4.57;;
53497;SDS011;39382;47.168;16.008;2024-03-23T08:03:17;6.13;;;4.70;;
53497;SDS011;39382;47.168;16.008;2024-03-23T08:05:43;8.68;;;6.70;;
53497;SDS011;39382;47.168;16.008;2024-03-23T08:08:08;4.90;;;3.38;;
53497;SDS011;39382;47.168;16.008;2024-03-23T08:10:34;4.30;;;2.75;;
53497;SDS011;39382;47.168;16.008;2024-03-23T08:13:00;5.80;;;3.00;;
53497;SDS011;39382;47.168;16.008;2024-03-23T08:15:25;5.28;;;3.88;;
53497;SDS011;39382;47.168;16.008;2024-03-23T08:17:51;12.23;;;11.00;;
53497;SDS011;39382;47.168;16.008;2024-03-23T08:20:17;5.63;;;5.03;;
53497;SDS011;39382;47.168;16.008;2024-03-23T08:22:42;4.72;;;3.50;;
53497;SDS011;39382;47.168;16.008;2024-03-23T08:25:08;6.07;;;4.47;;
53497;SDS011;39382;47.168;16.008;2024-03-23T08:27:33;4.43;;;3.67;;
53497;SDS011;39382;47.168;16.008;2024-03-23T08:29:59;5.65;;;2.72;;
53497;SDS011;39382;47.168;16.008;2024-03-23T08:32:25;7.25;;;2.30;;
53497;SDS011;39382;47.168;16.008;2024-03-23T08:34:50;5.45;;;2.78;;
53497;SDS011;39382;47.168;16.008;2024-03-23T08:37:16;4.13;;;2.80;;
53497;SDS011;39382;47.168;16.008;2024-03-23T08:39:44;4.05;;;2.53;;
53497;SDS011;39382;47.168;16.008;2024-03-23T08:42:10;5.60;;;2.97;;
53497;SDS011;39382;47.168;16.008;2024-03-23T08:44:36;2.85;;;2.00;;
53497;SDS011;39382;47.168;16.008;2024-03-23T08:47:01;3.70;;;2.53;;
53497;SDS011;39382;47.168;16.008;2024-03-23T08:49:27;3.83;;;2.83;;
53497;SDS011;39382;47.168;16.008;2024-03-23T08:51:53;4.00;;;2.78;;
53497;SDS011;39382;47.168;16.008;2024-03-23T08:54:19;3.78;;;3.10;;
53497;SDS011;39382;47.168;16.008;2024-03-23T08:56:47;3.88;;;2.95;;
53497;SDS011;39382;47.168;16.008;2024-03-23T08:59:12;5.68;;;2.60;;
53497;SDS011;39382;47.168;16.008;2024-03-23T09:01:38;4.32;;;3.38;;
53497;SDS011;39382;47.168;16.008;2024-03-23T09:04:04;4.90;;;2.83;;
53497;SDS011;39382;47.168;16.008;2024-03-23T09:06:29;7.32;;;3.15;;
53497;SDS011;39382;47.168;16.008;2024-03-23T09:08:55;4.78;;;2.80;;
53497;SDS011;39382;47.168;16.008;2024-03-23T09:11:20;4.82;;;2.58;;
53497;SDS011;39382;47.168;16.008;2024-03-23T09:13:46;3.00;;;2.70;;
53497;SDS011;39382;47.168;16.008;2024-03-23T09:16:12;4.78;;;3.00;;
53497;SDS011;39382;47.168;16.008;2024-03-23T09:18:38;3.08;;;2.70;;
53497;SDS011;39382;47.168;16.008;2024-03-23T09:21:04;4.55;;;2.63;;
53497;SDS011;39382;47.168;16.008;2024-03-23T09:23:36;3.60;;;2.92;;
53497;SDS011;39382;47.168;16.008;2024-03-23T09:26:04;7.35;;;2.88;;
53497;SDS011;39382;47.168;16.008;2024-03-23T09:28:32;2.80;;;2.53;;
53497;SDS011;39382;47.168;16.008;2024-03-23T09:31:08;4.60;;;2.88;;
53497;SDS011;39382;47.168;16.008;2024-03-23T09:33:39;3.58;;;2.17;;
53497;SDS011;39382;47.168;16.008;2024-03-23T09:36:05;3.60;;;2.28;;
53497;SDS011;39382;47.168;16.008;2024-03-23T09:38:32;4.47;;;3.05;;
53497;SDS011;39382;47.168;16.008;2024-03-23T09:40:58;3.13;;;2.50;;
53497;SDS011;39382;47.168;16.008;2024-03-23T09:43:24;3.63;;;2.80;;
53497;SDS011;39382;47.168;16.008;2024-03-23T09:45:50;3.40;;;2.40;;
53497;SDS011;39382;47.168;16.008;2024-03-23T09:48:17;4.68;;;2.38;;
53497;SDS011;39382;47.168;16.008;2024-03-23T09:50:43;7.45;;;2.25;;
53497;SDS011;39382;47.168;16.008;2024-03-23T09:53:13;6.10;;;2.75;;
53497;SDS011;39382;47.168;16.008;2024-03-23T09:55:43;5.07;;;2.83;;
53497;SDS011;39382;47.168;16.008;2024-03-23T09:58:13;6.95;;;2.65;;
53497;SDS011;39382;47.168;16.008;2024-03-23T10:00:40;4.15;;;3.03;;
53497;SDS011;39382;47.168;16.008;2024-03-23T10:03:06;6.70;;;3.47;;
53497;SDS011;39382;47.168;16.008;2024-03-23T10:05:32;5.88;;;3.10;;
53497;SDS011;39382;47.168;16.008;2024-03-23T10:08:17;4.68;;;3.35;;
53497;SDS011;39382;47.168;16.008;2024-03-23T10:10:44;5.43;;;2.95;;
53497;SDS011;39382;47.168;16.008;2024-03-23T10:13:11;2.92;;;2.63;;
53497;SDS011;39382;47.168;16.008;2024-03-23T10:15:54;4.88;;;3.20;;
53497;SDS011;39382;47.168;16.008;2024-03-23T10:18:23;5.63;;;2.70;;
53497;SDS011;39382;47.168;16.008;2024-03-23T10:21:02;6.10;;;3.10;;
53497;SDS011;39382;47.168;16.008;2024-03-23T10:23:32;4.25;;;2.50;;
53497;SDS011;39382;47.168;16.008;2024-03-23T10:26:17;3.92;;;2.80;;
53497;SDS011;39382;47.168;16.008;2024-03-23T10:28:53;2.88;;;2.58;;
53497;SDS011;39382;47.168;16.008;2024-03-23T10:31:30;3.95;;;2.53;;
53497;SDS011;39382;47.168;16.008;2024-03-23T10:33:56;3.75;;;2.22;;
53497;SDS011;39382;47.168;16.008;2024-03-23T10:36:23;4.13;;;2.63;;
53497;SDS011;39382;47.168;16.008;2024-03-23T10:38:49;4.25;;;2.67;;
53497;SDS011;39382;47.168;16.008;2024-03-23T10:41:17;2.92;;;2.22;;
53497;SDS011;39382;47.168;16.008;2024-03-23T10:43:45;4.85;;;2.63;;
53497;SDS011;39382;47.168;16.008;2024-03-23T10:46:11;7.32;;;3.05;;
53497;SDS011;39382;47.168;16.008;2024-03-23T10:48:37;4.15;;;2.55;;
53497;SDS011;39382;47.168;16.008;2024-03-23T10:51:03;4.40;;;2.58;;
53497;SDS011;39382;47.168;16.008;2024-03-23T10:53:30;4.65;;;2.88;;
53497;SDS011;39382;47.168;16.008;2024-03-23T10:55:58;3.53;;;2.88;;
53497;SDS011;39382;47.168;16.008;2024-03-23T10:58:31;7.15;;;3.67;;
53497;SDS011;39382;47.168;16.008;2024-03-23T11:01:18;3.42;;;2.50;;
53497;SDS011;39382;47.168;16.008;2024-03-23T11:03:47;3.67;;;2.45;;
53497;SDS011;39382;47.168;16.008;2024-03-23T11:15:12;3.92;;;2.50;;
53497;SDS011;39382;47.168;16.008;2024-03-23T11:17:38;4.85;;;2.60;;
53497;SDS011;39382;47.168;16.008;2024-03-23T11:20:04;4.10;;;2.38;;
53497;SDS011;39382;47.168;16.008;2024-03-23T11:22:40;3.33;;;2.22;;
53497;SDS011;39382;47.168;16.008;2024-03-23T11:25:26;4.55;;;2.22;;
53497;SDS011;39382;47.168;16.008;2024-03-23T11:27:57;3.50;;;2.20;;
53497;SDS011;39382;47.168;16.008;2024-03-23T11:30:27;4.93;;;2.75;;
53497;SDS011;39382;47.168;16.008;2024-03-23T11:32:54;2.17;;;1.70;;
53497;SDS011;39382;47.168;16.008;2024-03-23T11:35:27;2.42;;;2.00;;
53497;SDS011;39382;47.168;16.008;2024-03-23T11:43:09;4.95;;;2.00;;
53497;SDS011;39382;47.168;16.008;2024-03-23T11:45:40;2.50;;;2.20;;
53497;SDS011;39382;47.168;16.008;2024-03-23T11:48:11;1.92;;;1.77;;
53497;SDS011;39382;47.168;16.008;2024-03-23T11:50:42;3.67;;;2.00;;
53497;SDS011;39382;47.168;16.008;2024-03-23T11:58:12;5.03;;;2.67;;
53497;SDS011;39382;47.168;16.008;2024-03-23T12:00:38;2.85;;;2.13;;
53497;SDS011;39382;47.168;16.008;2024-03-23T12:03:04;2.67;;;2.45;;
53497;SDS011;39382;47.168;16.008;2024-03-23T12:05:31;3.33;;;1.88;;
53497;SDS011;39382;47.168;16.008;2024-03-23T12:08:19;2.58;;;1.70;;
53497;SDS011;39382;47.168;16.008;2024-03-23T12:10:50;2.85;;;1.80;;
53497;SDS011;39382;47.168;16.008;2024-03-23T12:13:17;4.20;;;1.70;;
53497;SDS011;39382;47.168;16.008;2024-03-23T12:15:47;3.72;;;2.05;;
53497;SDS011;39382;47.168;16.008;2024-03-23T12:18:15;2.35;;;1.80;;
53497;SDS011;39382;47.168;16.008;2024-03-23T12:20:40;2.03;;;1.50;;
53497;SDS011;39382;47.168;16.008;2024-03-23T12:23:07;2.85;;;1.58;;
53497;SDS011;39382;47.168;16.008;2024-03-23T12:25:36;1.50;;;1.40;;
53497;SDS011;39382;47.168;16.008;2024-03-23T12:28:04;2.05;;;1.70;;
53497;SDS011;39382;47.168;16.008;2024-03-23T12:30:33;2.15;;;1.73;;
53497;SDS011;39382;47.168;16.008;2024-03-23T12:33:00;2.58;;;1.67;;
53497;SDS011;39382;47.168;16.008;2024-03-23T12:35:26;2.20;;;1.73;;
53497;SDS011;39382;47.168;16.008;2024-03-23T12:37:52;1.67;;;1.55;;
53497;SDS011;39382;47.168;16.008;2024-03-23T12:40:17;2.10;;;1.77;;
53497;SDS011;39382;47.168;16.008;2024-03-23T12:42:43;3.05;;;2.20;;
53497;SDS011;39382;47.168;16.008;2024-03-23T12:45:09;2.72;;;2.33;;
53497;SDS011;39382;47.168;16.008;2024-03-23T12:47:34;3.97;;;1.88;;
53497;SDS011;39382;47.168;16.008;2024-03-23T12:50:00;4.50;;;2.35;;
53497;SDS011;39382;47.168;16.008;2024-03-23T12:52:26;2.60;;;1.58;;
53497;SDS011;39382;47.168;16.008;2024-03-23T12:54:56;2.08;;;1.88;;
53497;SDS011;39382;47.168;16.008;2024-03-23T12:57:23;3.55;;;2.35;;
53497;SDS011;39382;47.168;16.008;2024-03-23T12:59:52;3.13;;;2.50;;
53497;SDS011;39382;47.168;16.008;2024-03-23T13:02:18;3.40;;;2.50;;
53497;SDS011;39382;47.168;16.008;2024-03-23T13:04:50;2.67;;;1.90;;
53497;SDS011;39382;47.168;16.008;2024-03-23T13:07:20;4.35;;;2.30;;
53497;SDS011;39382;47.168;16.008;2024-03-23T13:09:46;2.03;;;1.65;;
53497;SDS011;39382;47.168;16.008;2024-03-23T13:12:12;2.55;;;1.88;;
53497;SDS011;39382;47.168;16.008;2024-03-23T13:14:41;5.70;;;1.58;;
53497;SDS011;39382;47.168;16.008;2024-03-23T13:17:07;2.63;;;2.00;;
53497;SDS011;39382;47.168;16.008;2024-03-23T13:19:33;5.18;;;2.75;;
53497;SDS011;39382;47.168;16.008;2024-03-23T13:21:59;5.45;;;2.33;;
53497;SDS011;39382;47.168;16.008;2024-03-23T13:24:26;3.72;;;2.60;;
53497;SDS011;39382;47.168;16.008;2024-03-23T13:26:52;4.57;;;2.20;;
53497;SDS011;39382;47.168;16.008;2024-03-23T13:29:19;11.20;;;6.05;;
53497;SDS011;39382;47.168;16.008;2024-03-23T13:31:45;5.18;;;2.83;;
53497;SDS011;39382;47.168;16.008;2024-03-23T13:34:14;2.30;;;1.75;;
53497;SDS011;39382;47.168;16.008;2024-03-23T13:36:41;2.75;;;1.95;;
53497;SDS011;39382;47.168;16.008;2024-03-23T13:39:07;2.10;;;1.60;;
53497;SDS011;39382;47.168;16.008;2024-03-23T13:44:05;7.38;;;2.33;;
53497;SDS011;39382;47.168;16.008;2024-03-23T13:46:41;2.85;;;2.35;;
53497;SDS011;39382;47.168;16.008;2024-03-23T13:49:18;3.85;;;2.20;;
53497;SDS011;39382;47.168;16.008;2024-03-23T13:51:53;4.13;;;2.00;;
53497;SDS011;39382;47.168;16.008;2024-03-23T13:54:20;2.67;;;2.20;;
53497;SDS011;39382;47.168;16.008;2024-03-23T13:56:47;5.25;;;2.30;;
53497;SDS011;39382;47.168;16.008;2024-03-23T13:59:14;2.58;;;1.70;;
53497;SDS011;39382;47.168;16.008;2024-03-23T14:01:39;3.75;;;2.03;;
53497;SDS011;39382;47.168;16.008;2024-03-23T14:04:05;2.15;;;1.50;;
53497;SDS011;39382;47.168;16.008;2024-03-23T14:06:31;5.18;;;1.40;;
53497;SDS011;39382;47.168;16.008;2024-03-23T14:08:57;3.40;;;1.55;;
53497;SDS011;39382;47.168;16.008;2024-03-23T14:11:22;2.05;;;1.42;;
53497;SDS011;39382;47.168;16.008;2024-03-23T14:13:48;1.45;;;1.35;;
53497;SDS011;39382;47.168;16.008;2024-03-23T14:16:14;2.33;;;1.92;;
53497;SDS011;39382;47.168;16.008;2024-03-23T14:18:39;2.20;;;1.65;;
53497;SDS011;39382;47.168;16.008;2024-03-23T14:21:05;3.40;;;1.58;;
53497;SDS011;39382;47.168;16.008;2024-03-23T14:23:32;1.60;;;1.10;;
53497;SDS011;39382;47.168;16.008;2024-03-23T14:26:00;1.58;;;1.48;;
53497;SDS011;39382;47.168;16.008;2024-03-23T14:28:26;2.70;;;1.33;;
53497;SDS011;39382;47.168;16.008;2024-03-23T14:30:52;2.75;;;1.67;;
53497;SDS011;39382;47.168;16.008;2024-03-23T14:33:21;2.67;;;1.27;;
53497;SDS011;39382;47.168;16.008;2024-03-23T14:35:56;1.83;;;1.40;;
53497;SDS011;39382;47.168;16.008;2024-03-23T14:40:48;2.15;;;1.40;;
53497;SDS011;39382;47.168;16.008;2024-03-23T14:43:14;5.38;;;1.90;;
53497;SDS011;39382;47.168;16.008;2024-03-23T14:46:25;2.50;;;1.45;;
53497;SDS011;39382;47.168;16.008;2024-03-23T14:48:39;2.13;;;1.63;;
53497;SDS011;39382;47.168;16.008;2024-03-23T14:51:06;1.33;;;1.23;;
53497;SDS011;39382;47.168;16.008;2024-03-23T14:53:35;2.95;;;1.40;;
53497;SDS011;39382;47.168;16.008;2024-03-23T14:56:04;5.40;;;1.60;;
53497;SDS011;39382;47.168;16.008;2024-03-23T14:58:30;3.92;;;1.35;;
53497;SDS011;39382;47.168;16.008;2024-03-23T15:01:00;6.82;;;2.00;;
53497;SDS011;39382;47.168;16.008;2024-03-23T15:03:29;5.38;;;2.35;;
53497;SDS011;39382;47.168;16.008;2024-03-23T15:05:55;3.65;;;2.42;;
53497;SDS011;39382;47.168;16.008;2024-03-23T15:08:21;8.63;;;5.65;;
53497;SDS011;39382;47.168;16.008;2024-03-23T15:10:48;3.92;;;2.85;;
53497;SDS011;39382;47.168;16.008;2024-03-23T15:13:14;2.95;;;2.25;;
53497;SDS011;39382;47.168;16.008;2024-03-23T15:15:40;2.15;;;1.92;;
53497;SDS011;39382;47.168;16.008;2024-03-23T15:18:09;1.98;;;1.60;;
53497;SDS011;39382;47.168;16.008;2024-03-23T15:20:39;4.57;;;1.92;;
53497;SDS011;39382;47.168;16.008;2024-03-23T15:23:06;3.58;;;1.65;;
53497;SDS011;39382;47.168;16.008;2024-03-23T15:25:32;5.35;;;1.98;;
53497;SDS011;39382;47.168;16.008;2024-03-23T15:27:58;3.08;;;1.95;;
53497;SDS011;39382;47.168;16.008;2024-03-23T15:30:25;5.63;;;2.80;;
53497;SDS011;39382;47.168;16.008;2024-03-23T15:32:53;10.45;;;2.08;;
53497;SDS011;39382;47.168;16.008;2024-03-23T15:35:19;3.25;;;1.70;;
53497;SDS011;39382;47.168;16.008;2024-03-23T15:37:47;0.55;;;0.50;;
53497;SDS011;39382;47.168;16.008;2024-03-23T15:40:13;6.32;;;0.30;;
53497;SDS011;39382;47.168;16.008;2024-03-23T15:42:39;0.95;;;0.50;;
53497;SDS011;39382;47.168;16.008;2024-03-23T15:45:08;0.70;;;0.40;;
53497;SDS011;39382;47.168;16.008;2024-03-23T15:47:34;0.38;;;0.38;;
53497;SDS011;39382;47.168;16.008;2024-03-23T15:50:01;0.20;;;0.20;;